ADDS METAR Data INFO
IDs: Format: Raw Decoded Include TAF

Data at: 1350 UTC 23 Jun 2018

KPBX 231335Z AUTO 20003KT 10SM SCT018 OVC100 22/21 A2989 RMK AO2 T02170213
KPBX 231315Z AUTO 00000KT 10SM SCT020 SCT039 OVC100 21/21 A2989 RMK AO2 T02080208
KPBX 231255Z AUTO 21003KT 10SM SCT041 BKN100 21/21 A2988 RMK AO2 T02100210
KPBX 231235Z AUTO 20003KT 10SM CLR 21/21 A2988 RMK AO2 T02060206
KPBX 231215Z AUTO 20003KT 10SM SCT070 20/20 A2988 RMK AO2 T02030203
KPBX 231155Z AUTO 19003KT 10SM BKN070 19/19 A2987 RMK AO2 T01920192 10195 20181
KPBX 231135Z AUTO 00000KT 10SM BKN070 OVC090 19/19 A2987 RMK AO2 T01940194
KPBX 231115Z AUTO 00000KT 10SM BKN070 19/19 A2986 RMK AO2 T01900190
KPBX 231055Z AUTO 21003KT 10SM BKN070 19/19 A2986 RMK AO2 T01910191
KPBX 231035Z AUTO 00000KT 10SM SCT060 SCT070 19/19 A2986 RMK AO2 T01870187
KPBX 231015Z AUTO 00000KT 10SM SCT060 SCT070 19/19 A2985 RMK AO2 T01880188
KPBX 230955Z AUTO 00000KT 10SM CLR 19/19 A2984 RMK AO2 T01860186
KPBX 230935Z AUTO 00000KT 10SM CLR 19/19 A2983 RMK AO2 T01850185
KPBX 230915Z AUTO 15003KT 10SM SCT019 19/19 A2983 RMK AO2 T01850185
KPBX 230855Z AUTO 15003KT 10SM SCT001 SCT019 SCT027 18/18 A2982 RMK AO2 T01810181
KPBX 230835Z AUTO 00000KT 1/2SM FG BKN001 BKN026 OVC034 18/18 A2982 RMK AO2 VIS 1/4V5 T01830183
KPBX 230815Z AUTO 15003KT 10SM BKN026 BKN034 OVC044 19/19 A2981 RMK AO2 T01910191
KPBX 230755Z AUTO 00000KT 10SM SCT028 BKN034 OVC044 19/19 A2981 RMK AO2 T01900190
KPBX 230735Z AUTO 00000KT 10SM SCT029 BKN044 OVC070 19/19 A2981 RMK AO2 T01880188
KPBX 230715Z AUTO 00000KT 10SM SCT029 BKN055 OVC070 19/19 A2981 RMK AO2 T01930193
KPBX 230655Z AUTO 00000KT 10SM SCT032 SCT043 OVC050 20/20 A2981 RMK AO2 T01950195
KPBX 230635Z AUTO 00000KT 10SM RA SCT040 OVC048 19/19 A2982 RMK AO2 T01930193
KPBX 230615Z AUTO 00000KT 10SM BKN040 OVC048 19/19 A2981 RMK AO2 T01920192
KPBX 230555Z AUTO 19003KT 10SM OVC050 20/20 A2981 RMK AO2 T01950195 10213 20190
KPBX 230535Z AUTO 00000KT 10SM OVC050 19/19 A2982 RMK AO2 T01910191
KPBX 230515Z AUTO 00000KT 10SM BKN050 BKN065 OVC075 19/19 A2981 RMK AO2 T01920192
KPBX 230455Z AUTO 00000KT 10SM SCT026 BKN035 OVC075 19/19 A2982 RMK AO2 T01910191 402620185
KPBX 230435Z AUTO 22004KT 7SM RA BKN026 BKN034 OVC048 20/20 A2983 RMK AO2 T01950195
KPBX 230415Z AUTO 22003KT 10SM -RA BKN032 BKN043 OVC065 20/20 A2982 RMK AO2 T01960196
KPBX 230355Z AUTO 24003KT 10SM -RA OVC030 20/20 A2982 RMK AO2 T01980198
KPBX 230335Z AUTO 28004KT 10SM SCT002 SCT023 OVC032 20/20 A2982 RMK AO2 T01950195
KPBX 230315Z AUTO 31007KT 1SM BR BKN002 BKN010 OVC039 20/20 A2982 RMK AO2 T01950195
KPBX 230255Z AUTO 00000KT 10SM CLR 21/20 A2980 RMK AO2 T02090197
KPBX 230235Z AUTO 00000KT 10SM CLR 21/21 A2979 RMK AO2 LTG DSNT NW T02070207
KPBX 230215Z AUTO 16005KT 10SM CLR 21/21 A2979 RMK AO2 T02060206
KPBX 230155Z AUTO 16005KT 10SM CLR 21/21 A2977 RMK AO2 T02070207
KPBX 230135Z AUTO 16005KT 10SM SCT060 SCT095 21/21 A2977 RMK AO2 T02080208
KPBX 230115Z AUTO 16004KT 10SM SCT050 OVC095 21/21 A2976 RMK AO2 T02070207
KPBX 230055Z AUTO 14005KT 10SM SCT050 SCT095 OVC110 21/21 A2976 RMK AO2 T02120212
KPBX 230035Z AUTO 12003KT 10SM SCT090 BKN120 21/21 A2976 RMK AO2 T02090209
KPBX 230015Z AUTO 13004KT 10SM SCT090 SCT120 21/21 A2977 RMK AO2 T02070207
KPBX 222355Z AUTO 13004KT 10SM SCT090 21/21 A2977 RMK AO2 LTG DSNT NW THRU E T02060206 10262 20185
KPBX 222335Z AUTO 13005KT 10SM CLR 21/20 A2977 RMK AO2 LTG DSNT NE AND W T02100202
KPBX 222315Z AUTO 14005KT 10SM SCT120 21/21 A2978 RMK AO2 LTG DSNT NE AND W T02110205
KPBX 222255Z AUTO 13004KT 10SM SCT120 21/21 A2978 RMK AO2 LTG DSNT W THRU NE T02060206
KPBX 222235Z AUTO 06004KT 10SM VCTS SCT110 21/21 A2978 RMK AO2 LTG DSNT NE E AND SW T02070207
KPBX 222215Z AUTO 08004KT 10SM TS SCT013 SCT030 BKN100 20/20 A2979 RMK AO2 LTG DSNT N THRU SE T02030203
KPBX 222155Z AUTO 20003G21KT 1SM TSRA BKN011 BKN026 OVC048 19/19 A2980 RMK AO2 LTG DSNT ALQS T01850185
KPBX 222135Z AUTO 00000KT 10SM TS SCT110 25/19 A2977 RMK AO2 LTG DSNT S THRU NW T02500194
KPBX 222115Z AUTO 20003KT 10SM CLR 26/20 A2977 RMK AO2 LTG DSNT SW THRU NW T02550196
KPBX 222055Z AUTO 18003KT 10SM VCTS CLR 26/20 A2978 RMK AO2 T02560196
KPBX 222035Z AUTO 20003KT 10SM CLR 26/20 A2977 RMK AO2 T02580200
KPBX 222015Z AUTO 21004KT 10SM CLR 25/19 A2978 RMK AO2 LTG DSNT E AND W T02500194
KPBX 221955Z AUTO 20004KT 10SM SCT100 25/19 A2978 RMK AO2 T02450193
KPBX 221935Z AUTO 21004KT 10SM SCT100 24/20 A2979 RMK AO2 LTG DSNT N T02360196
KPBX 221915Z AUTO 18003KT 10SM SCT100 23/21 A2979 RMK AO2 LTG DSNT N THRU SE T02320208
KPBX 221855Z AUTO 00000KT 10SM -VCTSRA SCT048 SCT080 BKN110 22/21 A2979 RMK AO2 LTG DSNT NE E AND W T02160209
KPBX 221835Z AUTO 20005G15KT 5SM TSRA SCT030 BKN050 OVC090 21/21 A2980 RMK AO2 LTG DSNT NW THRU NE T02060206
KPBX 221815Z AUTO 20005KT 10SM -VCTSRA SCT027 BKN033 OVC055 24/20 A2980 RMK AO2 LTG DSNT SW THRU N T02420198
KPBX 221755Z AUTO 16004KT 10SM SCT020 SCT025 BKN032 26/20 A2980 RMK AO2 LTG DSNT SW T02580204 10260 20190
KPBX 221735Z AUTO 20005KT 10SM BKN020 BKN027 OVC032 26/22 A2980 RMK AO2 T02550222
KPBX 221715Z AUTO 17005KT 10SM BKN020 BKN024 BKN032 25/22 A2981 RMK AO2 T02510222
KPBX 221655Z AUTO 17004KT 10SM BKN018 BKN026 BKN032 25/22 A2982 RMK AO2 T02510222
KPBX 221635Z AUTO 19003KT 10SM BKN015 BKN021 BKN110 24/22 A2983 RMK AO2 LTG DSNT SE T02430224
KPBX 221615Z AUTO 17004KT 10SM SCT015 SCT021 BKN110 24/23 A2983 RMK AO2 T02380232
KPBX 221555Z AUTO 19005KT 10SM SCT010 BKN100 23/23 A2984 RMK AO2 T02340230
KPBX 221535Z AUTO 16003KT 10SM OVC010 23/23 A2983 RMK AO2 T02300230
KPBX 221515Z AUTO 17003KT 10SM OVC008 24/23 A2983 RMK AO2 T02350233
KPBX 221455Z AUTO 15003KT 10SM BKN006 BKN048 OVC100 23/23 A2983 RMK AO2 T02260226
KPBX 221435Z AUTO 14003KT 10SM BKN004 BKN050 OVC060 22/22 A2984 RMK AO2 T02160216
KPBX 221415Z AUTO 16003KT 10SM OVC006 21/21 A2984 RMK AO2 T02090209
KPBX 221355Z AUTO 00000KT 10SM BKN004 BKN050 21/21 A2984 RMK AO2 T02080208
KPBX 221335Z AUTO 17003KT 10SM SCT001 21/21 A2984 RMK AO2 T02050205
KPBX 221315Z AUTO 00000KT 10SM BKN001 BKN019 OVC030 20/20 A2984 RMK AO2 T01980198
KPBX 221255Z AUTO 00000KT 1/2SM FG OVC003 20/20 A2984 RMK AO2 T01960196
KPBX 221235Z AUTO 00000KT 4SM -RA BKN003 BKN017 OVC050 19/19 A2985 RMK AO2 T01930193
KPBX 221215Z AUTO 00000KT 7SM -VCTSRA SCT006 SCT031 OVC050 19/19 A2984 RMK AO2 T01910191
KPBX 221155Z AUTO 23003KT 1 3/4SM +RA SCT006 BKN025 OVC050 19/19 A2984 RMK AO2 VIS 1 1/4V3 T01910191 10208 20191
KPBX 221135Z AUTO 23003KT 5SM RA SCT003 BKN017 OVC050 19/19 A2984 RMK AO2 T01930193
KPBX 221115Z AUTO 22008KT 1 1/4SM +RA SCT001 BKN019 OVC032 20/20 A2984 RMK AO2 T02000200
KPBX 221055Z AUTO 14003KT 10SM -RA SCT043 SCT060 BKN065 21/21 A2981 RMK AO2 T02070207
KPBX 221035Z AUTO 16003KT 10SM CLR 21/21 A2981 RMK AO2 LTG DSNT SW T02060206
KPBX 221015Z AUTO 14004KT 10SM CLR 21/21 A2980 RMK AO2 T02060206
KPBX 220955Z AUTO 14004KT 10SM CLR 20/20 A2979 RMK AO2 T02020202
KPBX 220935Z AUTO 14003KT 10SM CLR 20/20 A2979 RMK AO2 T02020202
KPBX 220915Z AUTO 14003KT 10SM SCT020 SCT043 SCT050 20/20 A2979 RMK AO2 T02030203
KPBX 220855Z AUTO 15003KT 10SM SCT020 SCT026 20/20 A2979 RMK AO2 T02030203
KPBX 220835Z AUTO 15003KT 10SM SCT022 20/20 A2978 RMK AO2 T02030203
KPBX 220815Z AUTO 15003KT 10SM SCT022 21/21 A2979 RMK AO2 T02050205
KPBX 220755Z AUTO 14004KT 10SM CLR 21/21 A2978 RMK AO2 T02050205
KPBX 220735Z AUTO 14003KT 10SM SCT022 SCT027 21/21 A2979 RMK AO2 T02050205
KPBX 220715Z AUTO 15003KT 10SM SCT022 SCT027 SCT050 21/21 A2979 RMK AO2 T02060206
KPBX 220655Z AUTO 15003KT 10SM SCT025 SCT050 21/21 A2979 RMK AO2 T02060206
KPBX 220635Z AUTO 15003KT 10SM SCT050 21/21 A2979 RMK AO2 T02050205
KPBX 220615Z AUTO 16004KT 10SM SCT024 SCT038 BKN060 21/21 A2980 RMK AO2 T02060206
KPBX 220555Z AUTO 16004KT 10SM SCT032 SCT040 OVC060 21/21 A2980 RMK AO2 T02060206 10236 20206
KPBX 220535Z AUTO 16004KT 10SM SCT032 BKN042 OVC050 21/21 A2980 RMK AO2 T02080208
KPBX 220515Z AUTO 16004KT 10SM SCT032 SCT043 OVC050 21/21 A2981 RMK AO2 T02100210
KPBX 220455Z AUTO 16004KT 10SM SCT036 SCT042 BKN050 21/21 A2981 RMK AO2 T02070207 402600207
KPBX 220435Z AUTO 15004KT 10SM SCT042 BKN048 BKN060 21/21 A2982 RMK AO2 T02100210
KPBX 220415Z AUTO 15004KT 10SM SCT060 BKN070 21/21 A2982 RMK AO2 T02090209
KPBX 220355Z AUTO 16004KT 10SM SCT060 BKN070 OVC075 21/21 A2982 RMK AO2 T02100210
KPBX 220335Z AUTO 15003KT 10SM OVC060 21/21 A2982 RMK AO2 T02120212
KPBX 220315Z AUTO 16003KT 10SM BKN060 21/21 A2983 RMK AO2 T02110211
KPBX 220255Z AUTO 15003KT 10SM SCT060 21/21 A2983 RMK AO2 T02110211
KPBX 220235Z AUTO 15003KT 10SM SCT060 SCT110 21/21 A2983 RMK AO2 T02120212
KPBX 220215Z AUTO 15003KT 10SM SCT120 22/22 A2983 RMK AO2 T02150215
KPBX 220155Z AUTO 15003KT 10SM BKN120 22/22 A2983 RMK AO2 T02170217